Time;durP1;ratioP1;P1;durP2;ratioP2;P2;SDS_P1;SDS_P2;PMS_P1;PMS_P2;Temp;Humidity;BMP_temperature;BMP_pressure;BME280_temperature;BME280_humidity;BME280_pressure;Samples;Min_cycle;Max_cycle;Signal;HPM_P1;HPM_P2
2020/12/28 00:00:32;;;;;;;0.98;0.82;;;20.30;45.00;;;;;;6300081;28;20028;-57
2020/12/28 00:03:33;;;;;;;1.08;0.70;;;20.30;45.00;;;;;;6300197;28;20344;-54
2020/12/28 00:06:33;;;;;;;1.40;0.90;;;20.20;44.90;;;;;;6299803;28;20039;-53
2020/12/28 00:09:34;;;;;;;1.35;0.75;;;20.20;44.90;;;;;;6299849;28;20024;-56
2020/12/28 00:12:47;;;;;;;1.17;0.85;;;20.20;44.90;;;;;;6299121;28;20030;-57
2020/12/28 00:15:48;;;;;;;1.52;0.85;;;20.20;44.90;;;;;;6300424;28;20024;-59
2020/12/28 00:18:48;;;;;;;1.40;0.88;;;20.20;44.90;;;;;;6299754;28;20031;-54
2020/12/28 00:21:49;;;;;;;1.40;1.00;;;20.20;45.00;;;;;;6299736;28;20460;-58
2020/12/28 00:24:49;;;;;;;1.73;0.88;;;20.20;44.90;;;;;;6300075;28;20024;-58
2020/12/28 00:27:51;;;;;;;1.35;1.00;;;20.20;45.00;;;;;;6299086;28;20482;-61
2020/12/28 00:30:52;;;;;;;1.60;0.95;;;20.20;45.00;;;;;;6289638;28;20028;-57
2020/12/28 00:33:52;;;;;;;1.33;0.70;;;20.20;45.00;;;;;;6299297;28;20530;-60
2020/12/28 00:36:53;;;;;;;1.75;1.00;;;20.20;45.00;;;;;;6300281;28;20137;-53
2020/12/28 00:39:54;;;;;;;1.42;0.85;;;20.20;45.10;;;;;;6299107;28;20066;-58
2020/12/28 00:42:54;;;;;;;1.00;0.63;;;20.20;45.10;;;;;;6299651;28;20119;-59
2020/12/28 00:45:54;;;;;;;1.40;0.98;;;20.20;45.10;;;;;;6298915;28;20028;-56
2020/12/28 00:48:55;;;;;;;1.27;0.90;;;20.20;45.00;;;;;;6299704;28;20274;-56
2020/12/28 00:51:56;;;;;;;0.82;0.70;;;20.20;45.00;;;;;;6299491;28;20082;-57
2020/12/28 00:54:56;;;;;;;0.77;0.65;;;20.20;45.10;;;;;;6298928;28;20024;-61
2020/12/28 00:57:57;;;;;;;1.33;1.02;;;20.20;45.00;;;;;;6299522;28;20047;-61
2020/12/28 01:00:57;;;;;;;0.85;0.70;;;20.20;45.10;;;;;;6299132;28;20028;-57
2020/12/28 01:03:58;;;;;;;0.85;0.68;;;20.10;45.00;;;;;;6299483;28;20024;-56
2020/12/28 01:06:58;;;;;;;1.27;0.85;;;20.10;45.10;;;;;;6303178;28;20111;-53
2020/12/28 01:09:59;;;;;;;0.63;0.57;;;20.10;45.10;;;;;;6304105;28;20024;-57
2020/12/28 01:12:59;;;;;;;1.60;0.90;;;20.20;45.10;;;;;;6304014;28;20446;-60
2020/12/28 01:16:00;;;;;;;0.98;0.80;;;20.10;45.00;;;;;;6304473;28;20377;-60
2020/12/28 01:19:01;;;;;;;0.90;0.77;;;20.10;45.00;;;;;;6304662;28;20164;-56
2020/12/28 01:22:02;;;;;;;0.80;0.70;;;20.10;45.10;;;;;;6303405;28;20077;-56
2020/12/28 01:25:04;;;;;;;2.53;0.80;;;20.10;45.10;;;;;;6304344;28;20730;-57
2020/12/28 01:28:04;;;;;;;1.00;0.82;;;20.10;45.10;;;;;;6283054;28;20063;-59
2020/12/28 01:31:05;;;;;;;1.88;0.90;;;20.10;45.10;;;;;;6301747;28;20017;-56
2020/12/28 01:34:06;;;;;;;1.27;0.90;;;20.10;45.10;;;;;;6304248;28;20376;-63
2020/12/28 01:37:06;;;;;;;1.55;0.70;;;20.10;45.10;;;;;;6303675;28;20027;-59
2020/12/28 01:40:07;;;;;;;0.80;0.70;;;20.10;45.10;;;;;;6303613;28;20024;-57
2020/12/28 01:43:07;;;;;;;0.77;0.70;;;20.10;45.10;;;;;;6300704;28;20568;-57
2020/12/28 01:46:08;;;;;;;0.70;0.70;;;20.10;45.10;;;;;;6302076;28;20412;-57
2020/12/28 01:49:09;;;;;;;0.88;0.70;;;20.10;45.10;;;;;;6278403;28;20029;-60
2020/12/28 01:52:10;;;;;;;0.95;0.80;;;20.10;45.10;;;;;;6278244;28;20020;-57
2020/12/28 01:55:10;;;;;;;1.25;0.80;;;20.10;45.10;;;;;;6278213;28;20017;-60
2020/12/28 01:58:11;;;;;;;1.00;0.85;;;20.10;45.10;;;;;;6296196;28;20210;-57
2020/12/28 02:01:15;;;;;;;0.98;0.80;;;20.10;45.10;;;;;;6277712;28;20036;-60
2020/12/28 02:04:15;;;;;;;1.58;0.70;;;20.10;45.10;;;;;;6277986;28;20076;-58
2020/12/28 02:07:18;;;;;;;1.13;0.85;;;20.10;45.10;;;;;;6285530;28;20423;-55
2020/12/28 02:10:19;;;;;;;1.58;0.90;;;20.10;45.80;;;;;;6303144;28;20607;-54
2020/12/28 02:13:19;;;;;;;0.82;0.70;;;20.10;45.10;;;;;;6302028;28;20384;-61
2020/12/28 02:16:20;;;;;;;1.17;0.80;;;20.10;45.10;;;;;;6302441;28;20047;-55
2020/12/28 02:19:21;;;;;;;1.20;0.82;;;20.00;45.10;;;;;;6302336;28;20020;-58
2020/12/28 02:22:22;;;;;;;1.23;0.85;;;20.00;45.00;;;;;;6295037;28;20417;-58
2020/12/28 02:25:22;;;;;;;0.70;0.70;;;20.00;45.00;;;;;;6277818;28;20036;-57
2020/12/28 02:28:23;;;;;;;1.20;0.90;;;20.00;45.10;;;;;;6277590;28;20051;-57
2020/12/28 02:31:23;;;;;;;1.17;0.93;;;20.00;45.10;;;;;;6302313;28;20016;-56
2020/12/28 02:34:24;;;;;;;0.70;0.70;;;20.00;45.10;;;;;;6279870;28;20024;-58
2020/12/28 02:37:24;;;;;;;1.10;0.70;;;20.00;45.10;;;;;;6282289;28;20443;-59
2020/12/28 02:40:25;;;;;;;1.20;0.80;;;20.00;45.10;;;;;;6301616;28;20024;-61
2020/12/28 02:43:25;;;;;;;0.75;0.60;;;20.00;45.10;;;;;;6301825;28;20024;-58
2020/12/28 02:46:26;;;;;;;1.63;1.00;;;20.00;45.10;;;;;;6302250;28;20024;-58
2020/12/28 02:49:26;;;;;;;1.60;0.88;;;20.00;45.10;;;;;;6301372;28;20089;-60
2020/12/28 02:52:27;;;;;;;1.08;0.82;;;20.00;45.10;;;;;;6302078;28;20021;-61
2020/12/28 02:55:27;;;;;;;1.00;0.90;;;20.00;45.10;;;;;;6319934;28;20020;-59
2020/12/28 02:58:28;;;;;;;1.27;1.08;;;20.00;45.10;;;;;;6302464;28;20478;-56
2020/12/28 03:01:28;;;;;;;1.13;0.80;;;20.00;45.10;;;;;;6300942;28;20251;-60
2020/12/28 03:04:29;;;;;;;1.30;0.90;;;20.00;45.10;;;;;;6301914;28;20020;-56
2020/12/28 03:07:30;;;;;;;0.85;0.70;;;20.00;45.10;;;;;;6301274;28;20028;-59
2020/12/28 03:10:30;;;;;;;1.30;0.80;;;20.00;45.10;;;;;;6276477;28;20461;-59
2020/12/28 03:13:31;;;;;;;1.30;1.00;;;20.00;45.10;;;;;;6277100;28;20024;-59
2020/12/28 03:16:31;;;;;;;1.00;0.60;;;20.00;45.20;;;;;;6276162;28;20028;-59
2020/12/28 03:19:32;;;;;;;1.00;0.85;;;20.00;45.20;;;;;;6276846;28;20055;-61
2020/12/28 03:22:32;;;;;;;1.48;0.90;;;20.00;45.10;;;;;;6295273;28;20495;-54
2020/12/28 03:25:33;;;;;;;0.90;0.73;;;19.90;45.10;;;;;;6319211;28;20557;-60
2020/12/28 03:28:33;;;;;;;1.25;0.80;;;19.90;45.10;;;;;;6297286;28;20024;-56
2020/12/28 03:31:34;;;;;;;1.10;0.90;;;20.00;45.10;;;;;;6275926;28;20037;-59
2020/12/28 03:34:35;;;;;;;0.90;0.80;;;19.90;45.20;;;;;;6276003;28;20059;-55
2020/12/28 03:37:35;;;;;;;1.10;0.80;;;19.90;45.20;;;;;;6275873;28;20549;-60
2020/12/28 03:40:36;;;;;;;1.60;0.98;;;20.00;45.20;;;;;;6276088;28;20086;-55
2020/12/28 03:43:36;;;;;;;0.70;0.60;;;19.90;45.10;;;;;;6279209;28;20082;-56
2020/12/28 03:46:37;;;;;;;1.88;0.80;;;19.90;45.10;;;;;;6300811;28;20480;-58
2020/12/28 03:49:37;;;;;;;1.50;1.00;;;19.90;45.10;;;;;;6300341;28;20031;-58
2020/12/28 03:52:39;;;;;;;2.65;0.80;;;19.90;45.10;;;;;;6300396;28;20027;-57
2020/12/28 03:55:39;;;;;;;0.70;0.60;;;19.90;45.10;;;;;;6300387;28;20032;-58
2020/12/28 03:58:40;;;;;;;0.98;0.70;;;19.90;45.20;;;;;;6300101;28;20484;-57
2020/12/28 04:01:41;;;;;;;1.02;0.90;;;19.90;45.20;;;;;;6299606;28;20447;-62
2020/12/28 04:04:41;;;;;;;1.05;0.73;;;19.90;45.30;;;;;;6290366;28;20020;-56
2020/12/28 04:07:42;;;;;;;1.67;1.00;;;19.90;45.20;;;;;;6275483;28;20032;-58
2020/12/28 04:10:42;;;;;;;1.08;0.85;;;20.00;45.20;;;;;;6274653;28;20062;-59
2020/12/28 04:13:43;;;;;;;0.80;0.60;;;19.90;45.20;;;;;;6275172;28;20025;-57
2020/12/28 04:16:43;;;;;;;1.50;0.90;;;19.90;45.20;;;;;;6275051;28;20075;-58
2020/12/28 04:19:44;;;;;;;0.80;0.73;;;19.90;45.20;;;;;;6275099;28;20021;-57
2020/12/28 04:22:44;;;;;;;0.60;0.60;;;19.90;45.20;;;;;;6274357;28;20028;-56
2020/12/28 04:25:45;;;;;;;0.90;0.80;;;19.90;45.30;;;;;;6275166;28;20024;-58
2020/12/28 04:28:46;;;;;;;1.10;0.80;;;19.90;45.30;;;;;;6278704;28;20511;-57
2020/12/28 04:31:46;;;;;;;1.20;0.70;;;19.90;45.30;;;;;;6299842;28;20081;-61
2020/12/28 04:34:47;;;;;;;0.80;0.50;;;19.90;45.90;;;;;;6293064;28;20028;-60
2020/12/28 04:37:47;;;;;;;1.00;0.75;;;19.90;45.30;;;;;;6274428;28;20020;-58
2020/12/28 04:40:48;;;;;;;0.82;0.70;;;19.90;45.30;;;;;;6288402;28;20020;-60
2020/12/28 04:43:49;;;;;;;1.15;0.80;;;19.90;45.30;;;;;;6298911;28;20024;-62
2020/12/28 04:46:50;;;;;;;0.98;0.70;;;19.90;45.30;;;;;;6299231;28;20028;-60
2020/12/28 04:49:51;;;;;;;1.30;0.85;;;19.90;45.30;;;;;;6298868;28;20033;-55
2020/12/28 04:52:52;;;;;;;0.93;0.75;;;19.90;45.30;;;;;;6299944;28;20473;-56
2020/12/28 04:55:53;;;;;;;1.27;0.95;;;19.90;45.30;;;;;;6298771;28;20055;-54
2020/12/28 04:58:53;;;;;;;1.02;0.90;;;19.90;45.30;;;;;;6299358;28;20024;-57
2020/12/28 05:01:54;;;;;;;0.80;0.73;;;19.90;45.30;;;;;;6299562;28;20028;-59
2020/12/28 05:05:04;;;;;;;0.65;0.65;;;19.90;45.30;;;;;;6299291;28;20078;-57
2020/12/28 05:08:05;;;;;;;1.05;0.70;;;19.80;45.30;;;;;;6299956;28;20042;-56
2020/12/28 05:11:11;;;;;;;0.60;0.60;;;19.90;45.30;;;;;;6298922;28;20461;-55
2020/12/28 05:14:16;;;;;;;0.90;0.80;;;19.90;45.10;;;;;;6299382;28;20052;-56
2020/12/28 05:17:16;;;;;;;1.30;0.70;;;19.90;45.10;;;;;;6279881;28;20036;-57
2020/12/28 05:20:21;;;;;;;0.77;0.57;;;20.00;45.00;;;;;;6274088;28;20251;-55
2020/12/28 05:23:22;;;;;;;;;;;20.00;45.10;;;;;;6274788;28;20029;-59
2020/12/28 05:26:22;;;;;;;0.90;0.70;;;20.00;45.00;;;;;;6288182;28;20436;-56
2020/12/28 05:29:25;;;;;;;1.52;0.65;;;20.00;45.10;;;;;;6298829;28;20032;-58
2020/12/28 05:32:27;;;;;;;1.30;0.90;;;20.10;45.10;;;;;;6298899;28;20016;-56
2020/12/28 05:35:28;;;;;;;0.85;0.68;;;20.10;45.10;;;;;;6296995;28;20481;-59
2020/12/28 05:38:31;;;;;;;0.63;0.60;;;20.10;45.10;;;;;;6274445;28;20047;-58
2020/12/28 05:41:32;;;;;;;0.80;0.70;;;20.10;45.10;;;;;;6273748;28;20036;-58
2020/12/28 05:44:33;;;;;;;0.80;0.80;;;20.10;45.20;;;;;;6274325;28;20052;-57
2020/12/28 05:47:43;;;;;;;0.98;0.65;;;20.10;45.10;;;;;;6285335;28;20024;-58
2020/12/28 05:50:44;;;;;;;0.93;0.75;;;20.10;45.10;;;;;;6296545;28;20017;-57
2020/12/28 05:53:47;;;;;;;1.40;0.80;;;20.10;45.10;;;;;;6294558;28;20030;-60
2020/12/28 05:56:48;;;;;;;0.90;0.80;;;20.10;45.10;;;;;;6303041;28;20031;-61
2020/12/28 05:59:48;;;;;;;11.52;1.90;;;20.10;45.20;;;;;;6293625;28;20090;-61
2020/12/28 06:02:49;;;;;;;18.23;1.90;;;20.10;44.80;;;;;;6289866;28;20496;-60
2020/12/28 06:05:54;;;;;;;17.20;1.38;;;20.10;44.90;;;;;;6301318;28;20028;-58
2020/12/28 06:08:55;;;;;;;13.57;1.58;;;20.10;45.00;;;;;;6301859;28;20028;-57
2020/12/28 06:12:03;;;;;;;7.80;2.17;;;20.00;44.60;;;;;;6301772;28;20027;-58
2020/12/28 06:15:20;;;;;;;11.40;2.47;;;20.20;42.90;;;;;;6301774;28;20123;-58
2020/12/28 06:18:20;;;;;;;10.88;1.85;;;20.30;42.30;;;;;;6282221;28;20036;-56
2020/12/28 06:21:21;;;;;;;3.45;1.35;;;20.50;42.50;;;;;;6278740;28;20535;-57
2020/12/28 06:24:34;;;;;;;6.07;1.58;;;20.60;42.60;;;;;;6301272;28;20028;-56
2020/12/28 06:27:40;;;;;;;5.15;1.40;;;20.70;42.70;;;;;;6288267;28;20063;-56
2020/12/28 06:30:41;;;;;;;4.93;1.45;;;20.80;42.80;;;;;;6290352;28;20539;-57
2020/12/28 06:33:49;;;;;;;6.70;1.48;;;20.80;42.80;;;;;;6300236;28;20027;-55
2020/12/28 06:37:00;;;;;;;2.67;1.60;;;20.90;43.00;;;;;;6301735;28;20016;-56
2020/12/28 06:40:00;;;;;;;7.90;1.50;;;20.90;42.90;;;;;;6301024;28;20024;-57
2020/12/28 06:43:13;;;;;;;5.18;1.30;;;21.00;43.10;;;;;;6288442;28;20017;-57
2020/12/28 06:46:21;;;;;;;3.47;1.20;;;21.00;43.20;;;;;;6276580;28;20504;-59
2020/12/28 06:49:22;;;;;;;4.55;1.98;;;21.00;43.10;;;;;;6275822;28;20039;-57
2020/12/28 06:52:22;;;;;;;21.65;2.30;;;21.00;43.10;;;;;;6281184;28;20519;-57
2020/12/28 06:55:24;;;;;;;8.10;1.42;;;21.00;43.00;;;;;;6300368;28;20020;-57
2020/12/28 06:58:24;;;;;;;6.38;1.40;;;21.10;43.50;;;;;;6289376;28;20092;-57
2020/12/28 07:01:25;;;;;;;4.43;1.33;;;21.20;43.10;;;;;;6303711;28;20435;-54
2020/12/28 07:04:27;;;;;;;11.40;2.00;;;21.20;43.00;;;;;;6303638;28;20023;-55
2020/12/28 07:07:27;;;;;;;7.20;1.75;;;21.20;43.10;;;;;;6302373;28;20615;-54
2020/12/28 07:10:28;;;;;;;4.63;1.40;;;21.30;43.20;;;;;;6301511;28;20034;-58
2020/12/28 07:13:29;;;;;;;6.85;1.50;;;21.30;43.40;;;;;;6301783;28;20115;-53
2020/12/28 07:16:30;;;;;;;3.63;1.00;;;21.30;43.50;;;;;;6303391;28;20365;-57
2020/12/28 07:19:31;;;;;;;5.18;1.20;;;21.30;43.50;;;;;;6317495;28;20067;-57
2020/12/28 07:22:33;;;;;;;3.40;1.20;;;21.30;43.60;;;;;;6293115;28;20052;-57
2020/12/28 07:25:33;;;;;;;2.55;1.25;;;21.30;43.70;;;;;;6302270;28;20028;-55
2020/12/28 07:28:35;;;;;;;3.58;1.63;;;21.40;43.90;;;;;;6290651;28;20025;-55
2020/12/28 07:31:36;;;;;;;4.57;1.10;;;21.40;43.90;;;;;;6298029;28;20081;-55
2020/12/28 07:34:37;;;;;;;3.75;1.20;;;21.40;43.90;;;;;;6297929;28;20028;-57
2020/12/28 07:37:42;;;;;;;5.55;1.23;;;21.40;43.90;;;;;;6301383;28;20559;-56
2020/12/28 07:40:54;;;;;;;4.75;1.20;;;21.40;43.90;;;;;;6299744;28;20028;-57
2020/12/28 07:43:55;;;;;;;2.70;1.27;;;21.40;43.90;;;;;;6295416;28;20126;-56
2020/12/28 07:47:09;;;;;;;1.95;1.10;;;21.40;44.00;;;;;;6295343;28;20048;-54
2020/12/28 07:50:13;;;;;;;9.13;1.55;;;21.50;44.30;;;;;;6294756;28;20085;-55
2020/12/28 07:53:18;;;;;;;5.00;1.45;;;21.50;43.90;;;;;;6300058;28;20546;-55
2020/12/28 07:56:28;;;;;;;3.92;1.13;;;21.50;43.70;;;;;;6292540;28;20031;-56
2020/12/28 07:59:46;;;;;;;3.42;1.52;;;21.50;43.90;;;;;;6301114;28;20511;-58
2020/12/28 08:03:00;;;;;;;2.08;1.08;;;21.40;43.80;;;;;;6314692;28;20508;-52
2020/12/28 08:06:04;;;;;;;2.95;1.13;;;21.40;43.80;;;;;;6318241;28;20484;-54
2020/12/28 08:09:05;;;;;;;3.20;1.00;;;21.40;43.80;;;;;;6297198;28;20028;-55
2020/12/28 08:12:05;;;;;;;1.67;1.17;;;21.40;43.80;;;;;;6300490;28;20020;-58
2020/12/28 08:15:07;;;;;;;2.05;1.13;;;21.40;43.90;;;;;;6317823;28;20020;-58
2020/12/28 08:18:08;;;;;;;2.90;1.08;;;21.40;44.00;;;;;;6308244;28;20357;-52
2020/12/28 08:21:09;;;;;;;3.40;0.70;;;21.40;43.90;;;;;;6317663;28;20111;-56
2020/12/28 08:24:20;;;;;;;6.45;1.10;;;21.40;43.90;;;;;;6301436;28;20046;-60
2020/12/28 08:27:20;;;;;;;37.97;1.90;;;21.40;44.50;;;;;;6285355;28;20039;-58
2020/12/28 08:30:21;;;;;;;13.30;1.38;;;21.50;45.00;;;;;;6310825;28;20025;-61
2020/12/28 08:33:21;;;;;;;10.38;1.30;;;21.60;45.10;;;;;;6278284;28;20070;-60
2020/12/28 08:36:25;;;;;;;4.75;0.90;;;21.60;45.40;;;;;;6294429;28;20046;-60
2020/12/28 08:39:26;;;;;;;3.60;0.98;;;21.50;44.40;;;;;;6300596;28;20027;-60
2020/12/28 08:42:32;;;;;;;4.43;1.30;;;21.50;44.30;;;;;;6295481;28;20489;-60
2020/12/28 08:45:32;;;;;;;8.32;1.20;;;21.50;44.30;;;;;;6275398;28;20025;-58
2020/12/28 08:48:33;;;;;;;5.43;1.30;;;21.50;44.80;;;;;;6277154;28;20052;-59
2020/12/28 08:51:34;;;;;;;6.75;1.50;;;21.60;44.60;;;;;;6275541;28;20017;-58
2020/12/28 08:54:34;;;;;;;11.68;1.80;;;21.60;45.00;;;;;;6298734;28;20024;-54
2020/12/28 08:57:35;;;;;;;8.55;1.63;;;21.70;46.30;;;;;;6296809;28;20379;-54
2020/12/28 09:00:36;;;;;;;6.55;1.35;;;21.70;45.30;;;;;;6275094;28;20025;-59
2020/12/28 09:03:38;;;;;;;3.15;1.30;;;21.80;45.20;;;;;;6296212;28;20028;-58
2020/12/28 09:06:41;;;;;;;8.02;1.65;;;21.80;45.60;;;;;;6299622;28;20086;-63
2020/12/28 09:09:43;;;;;;;6.90;1.05;;;21.90;46.50;;;;;;6280444;28;20028;-54
2020/12/28 09:12:44;;;;;;;3.42;1.30;;;21.90;45.70;;;;;;6275729;28;20017;-60
2020/12/28 09:15:45;;;;;;;11.40;1.58;;;21.80;45.70;;;;;;6274838;28;20473;-59
2020/12/28 09:18:45;;;;;;;13.88;1.95;;;21.80;45.90;;;;;;6291332;28;20032;-57
2020/12/28 09:21:46;;;;;;;3.03;1.48;;;21.70;46.00;;;;;;6300131;28;20021;-56
2020/12/28 09:24:46;;;;;;;3.78;1.20;;;21.70;45.40;;;;;;6299827;28;20063;-57
2020/12/28 09:27:47;;;;;;;4.70;1.58;;;21.70;45.20;;;;;;6301753;28;20157;-56
2020/12/28 09:30:48;;;;;;;7.30;1.48;;;21.70;45.10;;;;;;6303947;28;20020;-57
2020/12/28 09:33:49;;;;;;;5.28;1.20;;;21.70;45.10;;;;;;6300138;28;20104;-57
2020/12/28 09:37:07;;;;;;;2.85;1.42;;;21.70;45.10;;;;;;6313136;28;20110;-55
2020/12/28 09:40:07;;;;;;;1.92;1.05;;;21.70;45.00;;;;;;6278534;28;20024;-54
2020/12/28 09:43:08;;;;;;;6.82;1.40;;;21.70;45.10;;;;;;6278979;28;20034;-62
2020/12/28 09:46:09;;;;;;;6.93;1.65;;;21.70;45.20;;;;;;6279068;28;20094;-56
2020/12/28 09:49:09;;;;;;;6.68;1.30;;;21.80;45.00;;;;;;6285715;28;20024;-57
2020/12/28 09:52:10;;;;;;;5.47;1.30;;;21.90;44.90;;;;;;6279756;28;20680;-57
2020/12/28 09:55:11;;;;;;;10.50;1.92;;;21.90;45.50;;;;;;6302670;28;20020;-61
2020/12/28 09:58:12;;;;;;;20.77;2.25;;;21.60;43.20;;;;;;6296579;28;20056;-56
2020/12/28 10:01:12;;;;;;;5.28;1.90;;;21.60;42.50;;;;;;6302106;28;20025;-59
2020/12/28 10:04:13;;;;;;;4.90;1.77;;;21.70;43.10;;;;;;6306419;28;20099;-59
2020/12/28 10:07:14;;;;;;;2.55;1.70;;;21.80;43.60;;;;;;6321704;28;20020;-64
2020/12/28 10:10:14;;;;;;;11.35;1.80;;;21.90;43.80;;;;;;6305687;28;20548;-55
2020/12/28 10:13:15;;;;;;;18.60;2.00;;;21.80;44.00;;;;;;6281276;28;20028;-58
2020/12/28 10:16:24;;;;;;;6.15;1.52;;;21.80;44.00;;;;;;6303665;28;20105;-59
2020/12/28 10:19:24;;;;;;;10.32;1.52;;;21.80;44.10;;;;;;6303098;28;20040;-64
2020/12/28 10:22:28;;;;;;;10.30;1.40;;;21.80;44.50;;;;;;6303263;28;20024;-63
2020/12/28 10:25:29;;;;;;;5.35;1.30;;;21.90;44.60;;;;;;6295213;28;20029;-54
2020/12/28 10:28:29;;;;;;;5.00;1.75;;;21.90;44.30;;;;;;6298847;28;20087;-60
2020/12/28 10:31:30;;;;;;;7.85;1.70;;;21.80;44.50;;;;;;6300165;28;20513;-63
2020/12/28 10:34:30;;;;;;;5.53;1.70;;;21.80;45.20;;;;;;6302466;28;20020;-58
2020/12/28 10:37:31;;;;;;;10.60;1.50;;;21.80;44.60;;;;;;6302480;28;20027;-62
2020/12/28 10:40:31;;;;;;;11.02;1.83;;;21.80;44.60;;;;;;6295034;28;20048;-57
2020/12/28 10:43:32;;;;;;;12.13;1.60;;;21.80;44.60;;;;;;6303240;28;20058;-61
2020/12/28 10:46:36;;;;;;;4.57;1.83;;;21.80;44.90;;;;;;6302789;28;20027;-66
2020/12/28 10:49:36;;;;;;;11.35;1.95;;;21.80;45.10;;;;;;6295348;28;20046;-65
2020/12/28 10:52:37;;;;;;;8.15;1.83;;;21.70;44.70;;;;;;6317817;28;20024;-59
2020/12/28 10:55:37;;;;;;;8.70;1.60;;;21.70;44.90;;;;;;6302604;28;20023;-59
2020/12/28 10:58:39;;;;;;;7.03;2.05;;;21.70;44.80;;;;;;6301081;28;20048;-56
2020/12/28 11:01:40;;;;;;;15.95;1.90;;;21.70;44.60;;;;;;6291872;28;20827;-56
2020/12/28 11:04:41;;;;;;;10.10;2.03;;;21.70;44.80;;;;;;6300197;28;20070;-59
2020/12/28 11:07:41;;;;;;;4.45;1.80;;;21.70;44.80;;;;;;6277776;28;20051;-56
2020/12/28 11:10:42;;;;;;;9.05;1.48;;;21.70;45.00;;;;;;6288095;28;20696;-58
2020/12/28 11:13:44;;;;;;;2.47;1.30;;;21.70;44.90;;;;;;6300682;28;20020;-59
2020/12/28 11:16:44;;;;;;;12.07;2.00;;;21.70;44.90;;;;;;6290161;28;20030;-53
2020/12/28 11:19:45;;;;;;;5.88;1.60;;;21.70;45.20;;;;;;6295779;28;20021;-60
2020/12/28 11:22:46;;;;;;;3.10;1.45;;;21.70;44.80;;;;;;6316041;28;20474;-55
2020/12/28 11:25:48;;;;;;;4.03;1.52;;;21.70;44.80;;;;;;6313225;28;20435;-58
2020/12/28 11:28:49;;;;;;;6.70;1.65;;;21.70;44.90;;;;;;6294731;28;20032;-55
2020/12/28 11:31:49;;;;;;;3.75;1.73;;;21.80;44.70;;;;;;6281606;28;20366;-55
2020/12/28 11:34:50;;;;;;;2.22;1.45;;;21.90;44.70;;;;;;6301729;28;20107;-55
2020/12/28 11:37:51;;;;;;;2.88;1.63;;;21.80;44.50;;;;;;6288074;28;20051;-59
2020/12/28 11:40:51;;;;;;;3.33;1.75;;;21.60;43.60;;;;;;6286930;28;20436;-59
2020/12/28 11:43:52;;;;;;;3.30;1.85;;;21.70;42.30;;;;;;6297095;28;20054;-59
2020/12/28 11:46:56;;;;;;;6.95;2.00;;;21.70;42.60;;;;;;6306072;28;20111;-57
2020/12/28 11:49:57;;;;;;;7.07;2.05;;;21.80;42.20;;;;;;6312496;28;20544;-56
2020/12/28 11:52:57;;;;;;;2.42;1.55;;;21.80;42.70;;;;;;6297727;28;20021;-59
2020/12/28 11:56:05;;;;;;;5.25;1.70;;;21.70;42.70;;;;;;6300099;28;20019;-51
2020/12/28 11:59:05;;;;;;;28.90;3.45;;;21.90;43.00;;;;;;6298231;28;20031;-55
2020/12/28 12:02:06;;;;;;;5.47;1.88;;;21.80;42.80;;;;;;6293859;28;20678;-58
2020/12/28 12:05:06;;;;;;;15.77;1.90;;;21.70;42.70;;;;;;6299299;28;20123;-57
2020/12/28 12:08:07;;;;;;;7.70;2.40;;;21.80;42.90;;;;;;6293545;28;20028;-56
2020/12/28 12:11:07;;;;;;;10.77;1.75;;;21.70;43.00;;;;;;6293694;28;20097;-58
2020/12/28 12:14:08;;;;;;;14.75;1.42;;;21.80;43.20;;;;;;6296457;28;20028;-58
2020/12/28 12:17:09;;;;;;;11.98;3.10;;;21.90;43.10;;;;;;6301912;28;20024;-56
2020/12/28 12:20:10;;;;;;;14.07;2.92;;;21.90;41.60;;;;;;6312849;28;20107;-58
2020/12/28 12:23:10;;;;;;;11.32;5.55;;;21.70;40.40;;;;;;6299053;28;20081;-58
2020/12/28 12:26:11;;;;;;;25.20;6.80;;;21.70;41.00;;;;;;6290972;28;20020;-58
2020/12/28 12:29:11;;;;;;;47.70;9.18;;;21.80;42.40;;;;;;6293192;28;20028;-58
2020/12/28 12:32:12;;;;;;;17.50;7.95;;;22.00;42.30;;;;;;6289135;28;20035;-58
2020/12/28 12:35:13;;;;;;;21.95;10.13;;;22.00;42.40;;;;;;6288426;28;20066;-58
2020/12/28 12:38:13;;;;;;;28.40;15.80;;;21.90;42.40;;;;;;6300272;28;20032;-58
2020/12/28 12:41:20;;;;;;;20.77;10.40;;;21.90;42.90;;;;;;6285349;28;20028;-57
2020/12/28 12:44:20;;;;;;;64.00;10.70;;;22.10;42.50;;;;;;6285122;28;20115;-56
2020/12/28 12:47:21;;;;;;;36.42;9.82;;;22.10;42.70;;;;;;6298249;28;20020;-56
2020/12/28 12:50:21;;;;;;;25.80;8.98;;;22.20;42.50;;;;;;6294365;28;20030;-59
2020/12/28 12:53:22;;;;;;;68.15;9.43;;;22.20;42.90;;;;;;6295999;28;20443;-59
2020/12/28 12:56:22;;;;;;;27.13;8.88;;;22.30;42.70;;;;;;6298687;28;20024;-60
2020/12/28 12:59:23;;;;;;;22.45;8.25;;;22.30;42.70;;;;;;6294569;28;20036;-60
2020/12/28 13:02:23;;;;;;;27.48;7.78;;;22.20;43.20;;;;;;6298571;28;20421;-62
2020/12/28 13:05:24;;;;;;;19.50;7.72;;;22.30;43.60;;;;;;6285543;28;20050;-60
2020/12/28 13:08:24;;;;;;;15.60;7.50;;;22.20;43.90;;;;;;6281408;28;20057;-64
2020/12/28 13:11:25;;;;;;;14.88;7.80;;;22.20;43.80;;;;;;6299358;28;20042;-61
2020/12/28 13:14:25;;;;;;;17.70;7.07;;;22.20;43.90;;;;;;6291963;28;20430;-61
2020/12/28 13:17:26;;;;;;;21.73;6.82;;;22.10;43.90;;;;;;6293687;28;20025;-56
2020/12/28 13:20:27;;;;;;;21.45;7.10;;;22.10;44.20;;;;;;6285196;28;20084;-63
2020/12/28 13:23:28;;;;;;;13.43;6.55;;;22.10;43.90;;;;;;6288670;28;20598;-66
2020/12/28 13:26:28;;;;;;;14.48;6.55;;;22.10;44.00;;;;;;6298544;28;20020;-61
2020/12/28 13:29:29;;;;;;;16.80;5.95;;;22.10;44.10;;;;;;6282834;28;20431;-61
2020/12/28 13:32:29;;;;;;;17.33;6.28;;;22.20;43.90;;;;;;6301369;28;20031;-55
2020/12/28 13:35:30;;;;;;;14.40;6.00;;;22.20;44.00;;;;;;6289608;28;20020;-56
2020/12/28 13:38:30;;;;;;;12.10;6.28;;;22.10;44.20;;;;;;6295914;28;20115;-65
2020/12/28 13:41:31;;;;;;;11.35;5.93;;;22.10;44.10;;;;;;6293239;28;20111;-61
2020/12/28 13:44:32;;;;;;;7.05;5.35;;;22.10;44.00;;;;;;6291338;28;20058;-60
2020/12/28 13:47:33;;;;;;;11.85;5.80;;;22.10;44.10;;;;;;6290122;28;20032;-58
2020/12/28 13:50:40;;;;;;;15.45;5.25;;;22.10;44.20;;;;;;6302605;28;20031;-58
2020/12/28 13:53:41;;;;;;;13.40;5.20;;;22.10;44.00;;;;;;6299197;28;20101;-52
2020/12/28 13:56:42;;;;;;;12.10;5.07;;;22.10;44.30;;;;;;6302336;28;20027;-56
2020/12/28 13:59:43;;;;;;;12.95;5.53;;;22.00;44.10;;;;;;6287507;28;20493;-57
2020/12/28 14:02:43;;;;;;;14.10;4.25;;;22.00;43.40;;;;;;6298583;28;20020;-56
2020/12/28 14:05:44;;;;;;;10.90;4.30;;;21.30;35.80;;;;;;6302700;28;20039;-57
2020/12/28 14:08:46;;;;;;;6.97;3.65;;;21.00;33.00;;;;;;6294591;28;20036;-61
2020/12/28 14:11:47;;;;;;;6.50;3.72;;;21.20;36.30;;;;;;6295395;28;20024;-58
2020/12/28 14:14:49;;;;;;;7.55;3.70;;;21.50;36.60;;;;;;6292534;28;20078;-57
2020/12/28 14:17:49;;;;;;;14.85;4.18;;;21.60;37.10;;;;;;6298677;28;20082;-63
2020/12/28 14:20:50;;;;;;;8.80;4.22;;;21.60;37.30;;;;;;6294898;28;20036;-55
2020/12/28 14:23:51;;;;;;;10.00;3.97;;;21.70;37.70;;;;;;6302023;28;20028;-56
2020/12/28 14:26:51;;;;;;;8.85;3.70;;;21.70;38.20;;;;;;6291711;28;20063;-57
2020/12/28 14:29:52;;;;;;;9.75;3.70;;;21.70;38.40;;;;;;6292161;28;20106;-64
2020/12/28 14:32:52;;;;;;;7.90;4.03;;;21.80;39.70;;;;;;6281075;28;20020;-57
2020/12/28 14:35:53;;;;;;;13.43;4.43;;;21.90;39.70;;;;;;6301741;28;20074;-56
2020/12/28 14:38:53;;;;;;;20.52;4.15;;;21.90;40.20;;;;;;6299917;28;20062;-53
2020/12/28 14:41:54;;;;;;;12.70;3.78;;;22.00;41.60;;;;;;6297424;28;20113;-56
2020/12/28 14:44:55;;;;;;;16.15;5.53;;;22.00;41.00;;;;;;6290215;28;20020;-50
2020/12/28 14:47:57;;;;;;;13.18;3.45;;;22.10;41.60;;;;;;6293573;28;20453;-58
2020/12/28 14:50:59;;;;;;;9.90;3.92;;;22.00;40.70;;;;;;6289981;28;20028;-58
2020/12/28 14:53:59;;;;;;;18.30;6.10;;;21.90;40.80;;;;;;6298827;28;20024;-57
2020/12/28 14:57:00;;;;;;;17.10;6.15;;;22.00;42.20;;;;;;6301412;28;20393;-54
2020/12/28 15:00:00;;;;;;;18.77;6.82;;;21.90;41.20;;;;;;6290126;28;20104;-55
2020/12/28 15:03:01;;;;;;;20.65;6.00;;;22.00;41.70;;;;;;6292035;28;20051;-59
2020/12/28 15:06:01;;;;;;;17.83;5.05;;;22.00;41.50;;;;;;6293748;28;20031;-65
2020/12/28 15:09:02;;;;;;;15.82;5.75;;;22.00;41.70;;;;;;6276117;28;20031;-61
2020/12/28 15:12:03;;;;;;;17.08;5.65;;;22.10;41.90;;;;;;6290732;28;20028;-66
2020/12/28 15:15:04;;;;;;;14.63;5.15;;;22.20;42.10;;;;;;6289282;28;20463;-65
2020/12/28 15:18:05;;;;;;;17.95;5.90;;;22.20;41.60;;;;;;6297707;28;20476;-61
2020/12/28 15:21:05;;;;;;;35.42;11.48;;;22.20;41.90;;;;;;6299693;28;20149;-62
2020/12/28 15:24:06;;;;;;;11.45;5.40;;;22.20;41.60;;;;;;6278278;28;20020;-62
2020/12/28 15:27:06;;;;;;;20.23;5.97;;;22.10;41.50;;;;;;6317312;28;20716;-58
2020/12/28 15:30:08;;;;;;;14.48;5.97;;;22.10;42.00;;;;;;6310447;28;20024;-61
2020/12/28 15:33:09;;;;;;;14.48;6.78;;;22.20;41.70;;;;;;6292071;28;20024;-61
2020/12/28 15:36:10;;;;;;;19.83;7.65;;;22.30;41.90;;;;;;6301500;28;20017;-66
2020/12/28 15:39:10;;;;;;;14.07;6.20;;;22.40;41.80;;;;;;6289466;28;20031;-62